Time;durP1;ratioP1;P1;durP2;ratioP2;P2;SDS_P1;SDS_P2;PMS_P1;PMS_P2;Temp;Humidity;BMP_temperature;BMP_pressure;BME280_temperature;BME280_humidity;BME280_pressure;Samples;Min_cycle;Max_cycle;Signal;HPM_P1;HPM_P2
2023/11/25 00:02:20;;;;;;;7.23;5.60;;;2.40;99.90;;;;;;5044690;28;20223;-84
2023/11/25 00:04:46;;;;;;;5.80;5.20;;;2.50;99.90;;;;;;5043412;28;20697;-84
2023/11/25 00:07:11;;;;;;;9.20;5.37;;;2.50;99.90;;;;;;5039950;28;20202;-85
2023/11/25 00:09:37;;;;;;;8.60;5.77;;;2.60;99.90;;;;;;5040914;28;20604;-85
2023/11/25 00:12:03;;;;;;;13.37;5.67;;;2.60;99.90;;;;;;5041842;28;20223;-85
2023/11/25 00:14:29;;;;;;;11.63;6.33;;;2.60;99.90;;;;;;5043155;28;20210;-84
2023/11/25 00:16:55;;;;;;;10.57;6.07;;;2.60;99.90;;;;;;5040775;28;20171;-84
2023/11/25 00:19:20;;;;;;;10.47;5.77;;;2.60;99.90;;;;;;5042170;28;20172;-85
2023/11/25 00:21:46;;;;;;;6.90;5.07;;;2.60;99.90;;;;;;5040568;28;20180;-85
2023/11/25 00:24:11;;;;;;;7.80;5.23;;;2.50;99.90;;;;;;5042707;28;20210;-85
2023/11/25 00:26:38;;;;;;;8.27;5.77;;;2.50;99.90;;;;;;5042471;28;20205;-84
2023/11/25 00:29:05;;;;;;;6.17;5.47;;;2.50;99.90;;;;;;5040071;28;20706;-85
2023/11/25 00:31:31;;;;;;;10.00;5.83;;;2.50;99.90;;;;;;5043573;28;20256;-84
2023/11/25 00:33:56;;;;;;;10.40;5.43;;;2.50;99.90;;;;;;5038290;28;20293;-84
2023/11/25 00:36:22;;;;;;;9.37;5.70;;;2.60;99.90;;;;;;5024456;28;20589;-84
2023/11/25 00:38:49;;;;;;;8.13;5.37;;;2.60;99.90;;;;;;5043507;28;20190;-83
2023/11/25 00:41:15;;;;;;;9.73;5.80;;;2.60;99.90;;;;;;5043182;28;20225;-85
2023/11/25 00:43:41;;;;;;;12.93;5.40;;;2.60;99.90;;;;;;5042071;28;20211;-83
2023/11/25 00:46:07;;;;;;;10.87;4.90;;;2.60;99.90;;;;;;5049500;28;20192;-84
2023/11/25 00:48:35;;;;;;;19.03;5.97;;;2.60;99.90;;;;;;5051038;28;20164;-83
2023/11/25 00:51:01;;;;;;;7.93;4.97;;;2.50;99.90;;;;;;5051114;28;20183;-84
2023/11/25 00:53:27;;;;;;;12.63;5.93;;;2.50;99.90;;;;;;5051386;28;20180;-84
2023/11/25 00:55:52;;;;;;;8.47;5.47;;;2.50;99.90;;;;;;5051331;28;20626;-84
2023/11/25 00:58:18;;;;;;;8.00;5.13;;;2.50;99.90;;;;;;5052060;28;20183;-84
2023/11/25 01:00:45;;;;;;;12.30;5.63;;;2.60;99.90;;;;;;5051972;28;20164;-84
2023/11/25 01:03:11;;;;;;;11.33;4.83;;;2.60;99.90;;;;;;5050200;28;20274;-84
2023/11/25 01:05:37;;;;;;;10.80;4.80;;;2.60;99.90;;;;;;5045392;28;20195;-85
2023/11/25 01:08:03;;;;;;;8.90;5.90;;;2.60;99.90;;;;;;5046504;28;20203;-85
2023/11/25 01:10:30;;;;;;;9.20;6.13;;;2.50;99.90;;;;;;5044292;28;20370;-85
2023/11/25 01:12:55;;;;;;;16.77;7.17;;;2.50;99.90;;;;;;5050746;28;20215;-84
2023/11/25 01:15:21;;;;;;;7.70;5.40;;;2.50;99.90;;;;;;5045573;28;20188;-84
2023/11/25 01:17:48;;;;;;;12.53;6.03;;;2.50;99.90;;;;;;5028783;28;20187;-85
2023/11/25 01:20:13;;;;;;;9.97;5.80;;;2.50;99.90;;;;;;5044334;28;20210;-85
2023/11/25 01:22:39;;;;;;;10.27;5.50;;;2.50;99.90;;;;;;5045918;28;20326;-84
2023/11/25 01:25:06;;;;;;;16.37;6.37;;;2.50;99.90;;;;;;5043308;28;20203;-85
2023/11/25 01:27:33;;;;;;;14.53;6.23;;;2.50;99.90;;;;;;5043066;28;20510;-84
2023/11/25 01:29:59;;;;;;;13.97;5.83;;;2.50;99.90;;;;;;5044162;28;20195;-84
2023/11/25 01:32:25;;;;;;;12.73;6.07;;;2.40;99.90;;;;;;5043588;28;20587;-84
2023/11/25 01:34:51;;;;;;;7.63;5.30;;;2.50;99.90;;;;;;5042825;28;20206;-84
2023/11/25 01:37:17;;;;;;;8.30;6.10;;;2.40;99.90;;;;;;5043089;28;20249;-84
2023/11/25 01:39:43;;;;;;;11.90;5.63;;;2.40;99.90;;;;;;5044961;28;20171;-85
2023/11/25 01:42:09;;;;;;;10.70;6.10;;;2.40;99.90;;;;;;5046560;28;20179;-84
2023/11/25 01:44:34;;;;;;;13.93;5.43;;;2.40;99.90;;;;;;5047105;28;20222;-83
2023/11/25 01:47:00;;;;;;;12.37;5.90;;;2.40;99.90;;;;;;5048148;28;20792;-85
2023/11/25 01:49:26;;;;;;;15.30;5.67;;;2.40;99.90;;;;;;5045132;28;20229;-84
2023/11/25 01:51:54;;;;;;;14.17;6.13;;;2.40;99.90;;;;;;5047220;28;20265;-85
2023/11/25 01:54:21;;;;;;;14.37;6.47;;;2.30;99.90;;;;;;5047328;28;20345;-85
2023/11/25 01:56:58;;;;;;;8.97;5.67;;;2.30;99.90;;;;;;5048081;28;20179;-85
2023/11/25 01:59:27;;;;;;;10.33;5.97;;;2.20;99.90;;;;;;5043281;28;20199;-84
2023/11/25 02:01:54;;;;;;;14.30;6.83;;;2.20;99.90;;;;;;5025448;28;20196;-84
2023/11/25 02:04:20;;;;;;;12.23;6.30;;;2.20;99.90;;;;;;5024544;28;20207;-84
2023/11/25 02:06:46;;;;;;;6.40;5.80;;;2.10;99.90;;;;;;5024968;28;20191;-85
2023/11/25 02:09:11;;;;;;;15.13;7.67;;;2.10;99.90;;;;;;5026320;28;20176;-85
2023/11/25 02:11:59;;;;;;;11.00;6.70;;;2.10;99.90;;;;;;5028357;28;20206;-84
2023/11/25 02:14:25;;;;;;;12.93;6.37;;;2.10;99.90;;;;;;5027201;28;20282;-85
2023/11/25 02:16:51;;;;;;;9.63;6.50;;;2.10;99.90;;;;;;5029417;28;20160;-85
2023/11/25 02:19:24;;;;;;;10.73;6.30;;;2.10;99.90;;;;;;5040882;28;20190;-83
2023/11/25 02:21:51;;;;;;;9.53;6.00;;;2.10;99.90;;;;;;5050157;28;20202;-84
2023/11/25 02:24:16;;;;;;;9.93;6.07;;;2.10;99.90;;;;;;5048738;28;20230;-84
2023/11/25 02:26:45;;;;;;;9.57;6.17;;;2.10;99.90;;;;;;5047441;28;20179;-84
2023/11/25 02:29:12;;;;;;;11.77;6.33;;;2.10;99.90;;;;;;5047756;28;20179;-84
2023/11/25 02:31:39;;;;;;;16.00;6.50;;;2.10;99.90;;;;;;5046791;28;20203;-84
2023/11/25 02:34:09;;;;;;;9.07;6.00;;;2.10;99.90;;;;;;5045490;28;20266;-85
2023/11/25 02:36:38;;;;;;;14.10;7.33;;;2.10;99.90;;;;;;5047898;28;20576;-84
2023/11/25 02:39:03;;;;;;;18.43;6.33;;;2.10;99.90;;;;;;5044916;28;20176;-85
2023/11/25 02:41:30;;;;;;;10.53;5.90;;;2.10;99.90;;;;;;5034796;28;20237;-86
2023/11/25 02:43:56;;;;;;;16.93;7.57;;;2.00;99.90;;;;;;5037669;28;20252;-85
2023/11/25 02:46:23;;;;;;;13.97;6.57;;;2.00;99.90;;;;;;5030936;28;20199;-85
2023/11/25 02:48:49;;;;;;;11.13;5.83;;;2.00;99.90;;;;;;5052188;28;20191;-85
2023/11/25 02:51:15;;;;;;;14.37;7.00;;;2.00;99.90;;;;;;5056333;28;20197;-84
2023/11/25 02:53:40;;;;;;;8.83;6.10;;;2.00;99.90;;;;;;5056289;28;20151;-83
2023/11/25 02:56:06;;;;;;;17.60;6.50;;;2.10;99.90;;;;;;5058510;28;20190;-83
2023/11/25 02:58:32;;;;;;;14.63;6.53;;;2.10;99.90;;;;;;5047864;28;20172;-84
2023/11/25 03:01:01;;;;;;;15.13;5.70;;;2.10;99.90;;;;;;5048823;28;20201;-84
2023/11/25 03:03:29;;;;;;;10.13;6.50;;;2.10;99.90;;;;;;5054544;28;20206;-83
2023/11/25 03:05:55;;;;;;;11.60;6.47;;;2.10;99.90;;;;;;5053410;28;20183;-84
2023/11/25 03:08:27;;;;;;;14.43;6.17;;;2.00;99.90;;;;;;5053765;28;20214;-84
2023/11/25 03:10:55;;;;;;;18.87;6.73;;;2.10;99.90;;;;;;5038009;28;20206;-83
2023/11/25 03:13:21;;;;;;;9.23;5.97;;;2.10;99.90;;;;;;5053764;28;20176;-84
2023/11/25 03:15:47;;;;;;;18.77;6.80;;;2.10;99.90;;;;;;5053251;28;20222;-84
2023/11/25 03:18:13;;;;;;;16.27;6.20;;;2.10;99.90;;;;;;5052641;28;20179;-83
2023/11/25 03:20:41;;;;;;;14.40;6.20;;;2.10;99.90;;;;;;5052817;28;20175;-83
2023/11/25 03:23:07;;;;;;;12.47;6.30;;;2.10;99.90;;;;;;5052734;28;20235;-84
2023/11/25 03:25:33;;;;;;;13.97;5.83;;;2.10;99.90;;;;;;5051342;28;20222;-84
2023/11/25 03:28:04;;;;;;;10.93;5.67;;;2.10;99.90;;;;;;5050420;28;20194;-84
2023/11/25 03:30:33;;;;;;;13.10;6.67;;;2.10;99.90;;;;;;5051039;28;20187;-83
2023/11/25 03:33:00;;;;;;;11.53;5.87;;;2.10;99.90;;;;;;5050570;28;20214;-84
2023/11/25 03:35:26;;;;;;;16.00;6.10;;;2.10;99.90;;;;;;5048402;28;20199;-86
2023/11/25 03:37:52;;;;;;;11.53;6.87;;;2.10;99.90;;;;;;5048109;28;20565;-85
2023/11/25 03:40:17;;;;;;;11.30;5.80;;;2.20;99.90;;;;;;5048967;28;20198;-85
2023/11/25 03:42:44;;;;;;;15.07;6.47;;;2.20;99.90;;;;;;5050995;28;20527;-84
2023/11/25 03:45:12;;;;;;;8.23;5.77;;;2.30;99.90;;;;;;5048246;28;20199;-85
2023/11/25 03:47:41;;;;;;;9.97;5.83;;;2.30;99.90;;;;;;5048805;28;20175;-85
2023/11/25 03:50:09;;;;;;;17.43;6.00;;;2.40;99.90;;;;;;5045110;28;20163;-85
2023/11/25 03:52:35;;;;;;;13.03;6.57;;;2.50;99.90;;;;;;5045584;28;20253;-84
2023/11/25 03:55:03;;;;;;;8.33;5.57;;;2.50;99.90;;;;;;5046040;28;20255;-84
2023/11/25 03:57:28;;;;;;;18.63;5.60;;;2.50;99.90;;;;;;5046498;28;20176;-84
2023/11/25 03:59:54;;;;;;;19.47;5.70;;;2.50;99.90;;;;;;5043588;28;20171;-85
2023/11/25 04:02:20;;;;;;;15.03;5.93;;;2.60;99.90;;;;;;5043365;28;20193;-85
2023/11/25 04:04:45;;;;;;;12.23;6.20;;;2.60;99.90;;;;;;5042544;28;20203;-85
2023/11/25 04:07:12;;;;;;;7.83;5.87;;;2.70;99.90;;;;;;5041599;28;20654;-85
2023/11/25 04:09:37;;;;;;;12.23;5.37;;;2.80;99.90;;;;;;5042764;28;20249;-85
2023/11/25 04:12:03;;;;;;;14.63;5.70;;;2.80;99.90;;;;;;5045704;28;20261;-85
2023/11/25 04:14:29;;;;;;;12.23;6.17;;;2.80;99.90;;;;;;5045365;28;20531;-85
2023/11/25 04:16:56;;;;;;;16.93;6.10;;;2.80;99.90;;;;;;5044931;28;20255;-85
2023/11/25 04:19:22;;;;;;;15.83;7.10;;;2.90;99.90;;;;;;5043431;28;20186;-85
2023/11/25 04:21:50;;;;;;;12.33;6.13;;;2.80;99.90;;;;;;5042650;28;20172;-84
2023/11/25 04:24:17;;;;;;;13.27;6.17;;;2.80;99.90;;;;;;5040258;28;20195;-85
2023/11/25 04:26:42;;;;;;;15.30;5.97;;;2.80;99.90;;;;;;5023671;28;20175;-84
2023/11/25 04:29:08;;;;;;;7.93;5.30;;;2.80;99.90;;;;;;5040904;28;20180;-85
2023/11/25 04:31:36;;;;;;;11.93;5.77;;;2.90;99.90;;;;;;5023614;28;20279;-84
2023/11/25 04:34:02;;;;;;;16.50;5.77;;;2.90;99.90;;;;;;5040180;28;20206;-85
2023/11/25 04:36:28;;;;;;;15.13;5.43;;;2.90;99.90;;;;;;5038366;28;20198;-85
2023/11/25 04:38:56;;;;;;;15.67;5.87;;;2.90;99.90;;;;;;5037836;28;20176;-85
2023/11/25 04:41:22;;;;;;;6.90;5.70;;;2.90;99.90;;;;;;5037677;28;20180;-86
2023/11/25 04:43:48;;;;;;;15.40;5.90;;;2.80;99.90;;;;;;5038548;28;20213;-85
2023/11/25 04:46:14;;;;;;;15.13;6.17;;;2.80;99.90;;;;;;5036656;28;20167;-85
2023/11/25 04:48:41;;;;;;;16.33;6.20;;;2.70;99.90;;;;;;5021205;28;20203;-85
2023/11/25 04:51:09;;;;;;;14.57;5.77;;;2.70;99.90;;;;;;5036387;28;20180;-85
2023/11/25 04:53:34;;;;;;;10.13;5.43;;;2.70;99.90;;;;;;5041014;28;20633;-85
2023/11/25 04:56:00;;;;;;;15.43;5.53;;;2.70;99.90;;;;;;5038151;28;20163;-85
2023/11/25 04:58:25;;;;;;;11.43;5.83;;;2.60;99.90;;;;;;5040242;28;20229;-85
2023/11/25 05:00:51;;;;;;;13.80;5.97;;;2.60;99.90;;;;;;5036684;28;20182;-84
2023/11/25 05:03:19;;;;;;;12.47;6.43;;;2.60;99.90;;;;;;5036920;28;20186;-85
2023/11/25 05:05:45;;;;;;;8.43;5.37;;;2.60;99.90;;;;;;5036863;28;20191;-85
2023/11/25 05:08:11;;;;;;;12.93;6.00;;;2.60;99.90;;;;;;5035558;28;20234;-85
2023/11/25 05:10:37;;;;;;;11.27;5.70;;;2.70;99.90;;;;;;5035137;28;20183;-86
2023/11/25 05:13:04;;;;;;;9.87;5.53;;;2.70;99.90;;;;;;5036543;28;20218;-84
2023/11/25 05:15:30;;;;;;;10.33;6.10;;;2.80;99.90;;;;;;5034399;28;20202;-86
2023/11/25 05:17:55;;;;;;;14.47;6.10;;;2.80;99.90;;;;;;5034543;28;20171;-85
2023/11/25 05:20:22;;;;;;;13.07;5.90;;;2.90;99.90;;;;;;5035669;28;20171;-85
2023/11/25 05:22:48;;;;;;;16.67;7.43;;;2.90;99.90;;;;;;5035663;28;20190;-85
2023/11/25 05:25:14;;;;;;;10.87;6.23;;;2.90;99.90;;;;;;5051280;28;20199;-85
2023/11/25 05:27:40;;;;;;;15.60;5.80;;;3.00;99.90;;;;;;5041892;28;20234;-85
2023/11/25 05:30:06;;;;;;;12.13;6.23;;;3.00;99.90;;;;;;5034996;28;20586;-85
2023/11/25 05:32:32;;;;;;;10.70;6.23;;;3.00;99.90;;;;;;5034534;28;20207;-85
2023/11/25 05:34:59;;;;;;;16.63;6.40;;;3.00;99.90;;;;;;5034568;28;20806;-85
2023/11/25 05:37:24;;;;;;;6.93;5.73;;;3.00;99.90;;;;;;5035969;28;20262;-85
2023/11/25 05:39:50;;;;;;;12.40;5.77;;;3.10;99.90;;;;;;5035065;28;20199;-86
2023/11/25 05:42:23;;;;;;;17.67;6.20;;;3.10;99.90;;;;;;5033856;28;20271;-85
2023/11/25 05:44:49;;;;;;;16.70;6.40;;;3.10;99.90;;;;;;5034473;28;20249;-85
2023/11/25 05:47:14;;;;;;;14.37;6.40;;;3.10;99.90;;;;;;5034875;28;20176;-85
2023/11/25 05:49:41;;;;;;;19.17;5.83;;;3.10;99.90;;;;;;5034486;28;20183;-85
2023/11/25 05:52:06;;;;;;;8.43;5.13;;;3.20;99.90;;;;;;5034917;28;20214;-85
2023/11/25 05:54:32;;;;;;;10.30;5.70;;;3.20;99.90;;;;;;5037165;28;20200;-86
2023/11/25 05:56:58;;;;;;;16.07;6.00;;;3.20;99.90;;;;;;5035950;28;20174;-86
2023/11/25 05:59:25;;;;;;;10.90;5.73;;;3.10;99.90;;;;;;5034775;28;20237;-85
2023/11/25 06:01:50;;;;;;;10.90;5.47;;;3.10;99.90;;;;;;5036387;28;20235;-86
2023/11/25 06:04:16;;;;;;;15.73;5.23;;;3.10;99.90;;;;;;5018443;28;20578;-86
2023/11/25 06:06:42;;;;;;;15.43;5.40;;;3.20;99.90;;;;;;5036495;28;20220;-87
2023/11/25 06:09:11;;;;;;;17.57;5.83;;;3.20;99.90;;;;;;5036594;28;20187;-85
2023/11/25 06:11:38;;;;;;;10.90;5.87;;;3.30;99.90;;;;;;5035108;28;20238;-84
2023/11/25 06:14:04;;;;;;;19.60;6.83;;;3.20;99.90;;;;;;5035177;28;20586;-87
2023/11/25 06:16:30;;;;;;;15.20;5.87;;;3.30;99.90;;;;;;5035914;28;20182;-86
2023/11/25 06:18:57;;;;;;;15.67;5.37;;;3.30;99.90;;;;;;5035446;28;20168;-85
2023/11/25 06:21:23;;;;;;;15.17;6.57;;;3.30;99.90;;;;;;5018729;28;20191;-85
2023/11/25 06:23:50;;;;;;;13.83;6.67;;;3.30;99.90;;;;;;5034274;28;20203;-85
2023/11/25 06:26:16;;;;;;;16.97;6.23;;;3.40;99.90;;;;;;5034524;28;20366;-86
2023/11/25 06:28:43;;;;;;;12.57;6.53;;;3.40;99.90;;;;;;5039357;28;20206;-87
2023/11/25 06:31:11;;;;;;;9.17;5.43;;;3.40;99.90;;;;;;5039284;28;20210;-87
2023/11/25 06:33:38;;;;;;;20.90;6.57;;;3.50;99.90;;;;;;5039258;28;20179;-87
2023/11/25 06:36:05;;;;;;;19.00;7.50;;;3.50;99.90;;;;;;5039524;28;20194;-85
2023/11/25 06:38:30;;;;;;;7.83;6.10;;;3.50;99.90;;;;;;5040528;28;20180;-85
2023/11/25 06:40:56;;;;;;;10.03;5.60;;;3.50;99.90;;;;;;5035627;28;20275;-85
2023/11/25 06:43:22;;;;;;;16.93;6.20;;;3.50;99.90;;;;;;5039262;28;20175;-85
2023/11/25 06:45:48;;;;;;;10.10;5.50;;;3.60;99.90;;;;;;5039370;28;20203;-85
2023/11/25 06:48:18;;;;;;;11.80;5.70;;;3.60;99.90;;;;;;5040798;28;20183;-85
2023/11/25 06:50:43;;;;;;;12.07;5.37;;;3.60;99.90;;;;;;5040359;28;20181;-85
2023/11/25 06:53:09;;;;;;;15.50;6.27;;;3.60;99.90;;;;;;5039446;28;20203;-85
2023/11/25 06:55:34;;;;;;;8.33;6.17;;;3.70;99.90;;;;;;5042450;28;20274;-84
2023/11/25 06:58:01;;;;;;;15.37;6.57;;;3.70;99.90;;;;;;5041372;28;20179;-85
2023/11/25 07:00:26;;;;;;;14.33;6.53;;;3.70;99.90;;;;;;5041649;28;20175;-85
2023/11/25 07:02:52;;;;;;;12.20;7.10;;;3.70;99.90;;;;;;5042447;28;20179;-85
2023/11/25 07:05:18;;;;;;;15.57;6.30;;;3.80;99.90;;;;;;5041448;28;20199;-85
2023/11/25 07:07:43;;;;;;;6.47;5.60;;;3.80;99.90;;;;;;5040735;28;20191;-86
2023/11/25 07:10:10;;;;;;;6.37;5.27;;;3.80;99.90;;;;;;5040696;28;20179;-85
2023/11/25 07:12:40;;;;;;;9.77;5.90;;;3.80;99.90;;;;;;5041887;28;20231;-86
2023/11/25 07:15:08;;;;;;;10.17;6.17;;;3.70;99.90;;;;;;5041053;28;20612;-87
2023/11/25 07:17:36;;;;;;;8.93;5.30;;;3.70;99.90;;;;;;5041196;28;20171;-83
2023/11/25 07:20:05;;;;;;;10.57;5.70;;;3.70;99.90;;;;;;5039059;28;20175;-86
2023/11/25 07:22:31;;;;;;;6.63;5.63;;;3.70;99.90;;;;;;5040485;28;20179;-85
2023/11/25 07:24:57;;;;;;;17.13;6.13;;;3.80;99.90;;;;;;5041728;28;20207;-85
2023/11/25 07:27:23;;;;;;;10.20;6.17;;;3.80;99.90;;;;;;5038993;28;20237;-85
2023/11/25 07:29:49;;;;;;;9.57;5.93;;;3.70;99.90;;;;;;5039144;28;20514;-85
2023/11/25 07:32:17;;;;;;;12.97;5.60;;;3.70;99.90;;;;;;5038531;28;20211;-85
2023/11/25 07:34:42;;;;;;;9.43;6.77;;;3.70;99.90;;;;;;5041765;28;20211;-84
2023/11/25 07:37:08;;;;;;;13.13;6.00;;;3.70;99.90;;;;;;5038732;28;20175;-85
2023/11/25 07:39:34;;;;;;;8.47;6.10;;;3.70;99.90;;;;;;5039874;28;20176;-85
2023/11/25 07:42:01;;;;;;;15.53;6.20;;;3.60;99.90;;;;;;5037781;28;20534;-85
2023/11/25 07:44:33;;;;;;;15.13;5.23;;;3.60;99.90;;;;;;5037621;28;20231;-86
2023/11/25 07:47:01;;;;;;;16.57;6.17;;;3.60;99.90;;;;;;5037547;28;20237;-85
2023/11/25 07:49:29;;;;;;;19.17;6.77;;;3.60;99.90;;;;;;5036272;28;20210;-86
2023/11/25 07:51:55;;;;;;;20.50;6.03;;;3.60;99.90;;;;;;5036897;28;20203;-85
2023/11/25 07:54:20;;;;;;;9.97;5.83;;;3.70;99.90;;;;;;5035666;28;20241;-85
2023/11/25 07:56:47;;;;;;;8.87;5.13;;;3.80;99.90;;;;;;5035634;28;20172;-85
2023/11/25 07:59:14;;;;;;;17.57;6.23;;;3.90;99.90;;;;;;5035205;28;20182;-86
2023/11/25 08:01:40;;;;;;;9.97;5.50;;;3.90;99.90;;;;;;5035599;28;20183;-85
2023/11/25 08:04:06;;;;;;;11.37;6.20;;;4.10;99.90;;;;;;5042189;28;20211;-85
2023/11/25 08:06:32;;;;;;;10.47;5.40;;;4.10;99.90;;;;;;5035544;28;20179;-85
2023/11/25 08:08:59;;;;;;;10.70;5.43;;;4.10;99.90;;;;;;5036082;28;20206;-84
2023/11/25 08:11:26;;;;;;;12.93;5.57;;;4.10;99.90;;;;;;5035448;28;20669;-86
2023/11/25 08:13:54;;;;;;;9.73;5.70;;;4.20;99.90;;;;;;5034554;28;20573;-85
2023/11/25 08:16:21;;;;;;;15.47;5.27;;;4.20;99.90;;;;;;5034680;28;20593;-85
2023/11/25 08:18:48;;;;;;;7.73;5.13;;;4.20;99.90;;;;;;5035563;28;20175;-85
2023/11/25 08:21:14;;;;;;;9.73;5.83;;;4.20;99.90;;;;;;5018033;28;20180;-85
2023/11/25 08:23:42;;;;;;;9.87;5.27;;;4.30;99.90;;;;;;5033533;28;20171;-85
2023/11/25 08:26:26;;;;;;;13.30;6.27;;;4.40;99.90;;;;;;5033451;28;20175;-85
2023/11/25 08:28:55;;;;;;;9.20;5.27;;;4.40;99.90;;;;;;5034123;28;20642;-85
2023/11/25 08:31:22;;;;;;;18.57;5.63;;;4.40;99.90;;;;;;5040356;28;20180;-84
2023/11/25 08:33:47;;;;;;;8.03;5.47;;;4.40;99.90;;;;;;5053564;28;20215;-86
2023/11/25 08:36:19;;;;;;;6.53;4.90;;;4.40;99.90;;;;;;5037179;28;20578;-85
2023/11/25 08:38:45;;;;;;;11.47;6.43;;;4.40;99.90;;;;;;5035151;28;20183;-85
2023/11/25 08:41:10;;;;;;;12.40;5.77;;;4.40;99.90;;;;;;5035450;28;20286;-86
2023/11/25 08:43:43;;;;;;;10.23;5.23;;;4.40;99.90;;;;;;5034886;28;20334;-85
2023/11/25 08:46:13;;;;;;;13.07;6.07;;;4.40;99.90;;;;;;5033157;28;20241;-86
2023/11/25 08:48:41;;;;;;;9.33;5.80;;;4.40;99.90;;;;;;5033807;28;20187;-86
2023/11/25 08:51:10;;;;;;;7.07;5.90;;;4.40;99.90;;;;;;5032318;28;20183;-86
2023/11/25 08:53:39;;;;;;;15.10;7.10;;;4.40;99.90;;;;;;5034654;28;20206;-86
2023/11/25 08:56:06;;;;;;;16.33;9.17;;;4.40;99.90;;;;;;5034647;28;20271;-85
2023/11/25 08:58:32;;;;;;;12.33;8.47;;;4.40;99.90;;;;;;5037519;28;20186;-86
2023/11/25 09:00:58;;;;;;;6.77;5.27;;;4.50;99.90;;;;;;5036588;28;20237;-86
2023/11/25 09:03:24;;;;;;;11.43;5.80;;;4.40;99.90;;;;;;5036982;28;20179;-85
2023/11/25 09:05:51;;;;;;;7.17;5.03;;;4.50;99.90;;;;;;5037659;28;20286;-85
2023/11/25 09:08:17;;;;;;;10.77;5.20;;;4.50;99.90;;;;;;5034410;28;20238;-87
2023/11/25 09:10:44;;;;;;;5.50;4.60;;;4.60;99.90;;;;;;4999312;28;20188;-86
2023/11/25 09:13:11;;;;;;;7.57;4.90;;;4.70;99.90;;;;;;5015359;28;20290;-85
2023/11/25 09:15:37;;;;;;;5.60;4.07;;;5.00;99.90;;;;;;4998369;28;20239;-86
2023/11/25 09:18:03;;;;;;;7.87;4.20;;;5.50;99.90;;;;;;5013940;28;20306;-85
2023/11/25 09:20:28;;;;;;;6.77;4.70;;;5.90;99.90;;;;;;5013149;28;20180;-86
2023/11/25 09:22:54;;;;;;;12.40;5.07;;;6.20;99.90;;;;;;5013235;28;20216;-84
2023/11/25 09:25:20;;;;;;;6.57;4.53;;;6.20;99.90;;;;;;5026389;28;20253;-85
2023/11/25 09:27:46;;;;;;;5.00;4.50;;;6.10;99.90;;;;;;5033105;28;20234;-86
2023/11/25 09:30:14;;;;;;;8.30;5.10;;;6.00;99.90;;;;;;5034305;28;20183;-86
2023/11/25 09:32:41;;;;;;;12.23;5.17;;;5.90;99.90;;;;;;5034630;28;20242;-86
2023/11/25 09:35:12;;;;;;;8.77;5.47;;;5.80;99.90;;;;;;5033586;28;20362;-86
2023/11/25 09:37:39;;;;;;;9.27;4.83;;;5.70;99.90;;;;;;5034632;28;20171;-85
2023/11/25 09:40:05;;;;;;;7.73;4.87;;;5.80;99.90;;;;;;5032889;28;20210;-85
2023/11/25 09:42:33;;;;;;;6.50;4.87;;;6.00;99.90;;;;;;5032672;28;20199;-86
2023/11/25 09:45:01;;;;;;;8.30;4.37;;;6.20;99.90;;;;;;5032757;28;20207;-86
2023/11/25 09:47:27;;;;;;;7.50;4.27;;;6.50;99.90;;;;;;5033210;28;20183;-86
2023/11/25 09:49:53;;;;;;;8.33;4.63;;;6.70;99.90;;;;;;5032879;28;20559;-86
2023/11/25 09:52:20;;;;;;;12.93;4.63;;;7.00;74.00;;;;;;5034127;28;20299;-86
2023/11/25 09:54:59;;;;;;;8.93;4.73;;;7.30;1.90;;;;;;5032138;28;20203;-86
2023/11/25 09:57:32;;;;;;;7.07;4.47;;;7.40;1.00;;;;;;5032867;28;20566;-86
2023/11/25 10:00:06;;;;;;;11.87;4.40;;;7.50;1.00;;;;;;5035499;28;20295;-85
2023/11/25 10:02:33;;;;;;;5.70;4.33;;;7.50;1.00;;;;;;5036686;28;20187;-87
2023/11/25 10:05:01;;;;;;;11.70;4.20;;;7.60;1.00;;;;;;5036053;28;20203;-86
2023/11/25 10:07:27;;;;;;;7.33;4.73;;;7.80;1.00;;;;;;5037994;28;20205;-86
2023/11/25 10:09:53;;;;;;;7.67;4.70;;;8.00;1.00;;;;;;5036044;28;20233;-87
2023/11/25 10:12:18;;;;;;;8.87;5.57;;;7.70;1.00;;;;;;5039221;28;20279;-86
2023/11/25 10:14:44;;;;;;;8.80;4.80;;;7.30;1.00;;;;;;5039392;28;20210;-87
2023/11/25 10:17:21;;;;;;;7.73;4.37;;;7.10;1.00;;;;;;5037209;28;20179;-86
2023/11/25 10:19:47;;;;;;;8.60;4.50;;;7.10;1.00;;;;;;5037227;28;20182;-86
2023/11/25 10:22:16;;;;;;;5.63;5.07;;;7.40;1.00;;;;;;5004976;28;20180;-88
2023/11/25 10:24:50;;;;;;;8.80;4.87;;;7.50;1.00;;;;;;5016282;28;20196;-86
2023/11/25 10:27:16;;;;;;;8.20;4.90;;;7.20;1.00;;;;;;5016340;28;20180;-88
2023/11/25 10:29:42;;;;;;;4.97;4.30;;;6.90;1.00;;;;;;5032345;28;20231;-88
2023/11/25 10:32:09;;;;;;;8.63;4.87;;;6.60;1.00;;;;;;5032552;28;20199;-88
2023/11/25 10:34:36;;;;;;;5.83;5.30;;;6.30;1.00;;;;;;5017092;28;20192;-87
2023/11/25 10:37:07;;;;;;;5.70;5.10;;;6.20;30.00;;;;;;5036035;28;20241;-87
2023/11/25 10:39:36;;;;;;;8.57;4.70;;;6.40;64.50;;;;;;5036286;28;20199;-87
2023/11/25 10:42:08;;;;;;;6.90;4.80;;;6.60;42.40;;;;;;5034256;28;20199;-87
2023/11/25 10:44:38;;;;;;;6.87;4.30;;;6.80;8.80;;;;;;5036888;28;20212;-87
2023/11/25 10:47:05;;;;;;;8.10;5.13;;;7.10;1.00;;;;;;5037861;28;20179;-87
2023/11/25 10:49:36;;;;;;;9.63;4.47;;;7.30;1.00;;;;;;5040811;28;20188;-87
2023/11/25 10:52:06;;;;;;;9.13;4.43;;;7.80;1.00;;;;;;5020357;28;20703;-87
2023/11/25 10:54:34;;;;;;;7.53;4.10;;;8.20;1.00;;;;;;5037916;28;20292;-87
2023/11/25 10:57:06;;;;;;;9.70;4.80;;;8.50;1.00;;;;;;5037634;28;20182;-87
2023/11/25 10:59:39;;;;;;;7.60;4.83;;;8.50;99.90;;;;;;5037212;28;20179;-86
2023/11/25 11:02:07;;;;;;;14.50;8.27;;;8.10;1.00;;;;;;5036248;28;20188;-87
2023/11/25 11:04:42;;;;;;;8.60;5.23;;;7.60;1.00;;;;;;5036647;28;20214;-86
2023/11/25 11:07:14;;;;;;;12.37;7.23;;;7.30;1.00;;;;;;5038884;28;20199;-88
2023/11/25 11:09:43;;;;;;;6.50;5.00;;;7.00;1.00;;;;;;5035062;28;20183;-88
2023/11/25 11:12:22;;;;;;;6.47;4.30;;;7.00;1.00;;;;;;5034973;28;20218;-88
2023/11/25 11:15:09;;;;;;;6.53;4.33;;;6.90;1.00;;;;;;5039051;28;20199;-87
2023/11/25 11:17:35;;;;;;;12.23;8.07;;;7.00;1.00;;;;;;5048858;28;20191;-86
2023/11/25 11:20:02;;;;;;;15.40;9.47;;;7.30;1.00;;;;;;5038909;28;20180;-88
2023/11/25 11:22:28;;;;;;;8.57;5.37;;;7.50;1.00;;;;;;5036577;28;20179;-86
2023/11/25 11:25:07;;;;;;;6.90;4.57;;;7.50;99.90;;;;;;5035377;28;20345;-86
2023/11/25 11:27:55;;;;;;;5.20;4.30;;;7.50;99.90;;;;;;5037229;28;20189;-87
2023/11/25 11:30:40;;;;;;;10.47;5.73;;;7.60;99.90;;;;;;5037494;28;20191;-88
2023/11/25 11:33:07;;;;;;;5.13;4.63;;;7.70;99.90;;;;;;5015772;28;20208;-86
2023/11/25 11:35:38;;;;;;;7.17;5.43;;;7.80;99.90;;;;;;5014621;28;20254;-86
2023/11/25 11:38:26;;;;;;;5.60;5.10;;;7.80;99.90;;;;;;5016197;28;20207;-88
2023/11/25 11:41:13;;;;;;;12.87;6.47;;;7.70;99.90;;;;;;5033560;28;20232;-87
2023/11/25 11:43:39;;;;;;;12.97;5.90;;;7.60;99.90;;;;;;5031623;28;20643;-87
2023/11/25 11:46:05;;;;;;;19.67;9.60;;;7.40;1.00;;;;;;5019208;28;20261;-85
2023/11/25 11:48:31;;;;;;;15.33;6.43;;;7.30;1.00;;;;;;5036787;28;20180;-87
2023/11/25 11:50:58;;;;;;;7.93;4.57;;;7.40;1.00;;;;;;5035172;28;20210;-87
2023/11/25 11:53:25;;;;;;;11.90;6.37;;;7.50;99.90;;;;;;5036653;28;20579;-86
2023/11/25 11:55:52;;;;;;;6.47;4.30;;;7.60;99.90;;;;;;5036702;28;20286;-87
2023/11/25 11:58:26;;;;;;;5.50;4.10;;;7.50;99.90;;;;;;5036145;28;20183;-87
2023/11/25 12:01:01;;;;;;;15.97;8.73;;;7.30;99.90;;;;;;5034542;28;20171;-85
2023/11/25 12:03:29;;;;;;;7.27;6.57;;;7.10;1.00;;;;;;5034637;28;20171;-85
2023/11/25 12:05:55;;;;;;;11.80;5.67;;;6.90;1.00;;;;;;5036236;28;20179;-85
2023/11/25 12:08:21;;;;;;;10.20;6.70;;;6.70;1.00;;;;;;5034640;28;20195;-85
2023/11/25 12:10:48;;;;;;;9.10;6.33;;;6.60;17.50;;;;;;5035490;28;20179;-85
2023/11/25 12:13:26;;;;;;;5.73;5.23;;;6.50;85.20;;;;;;5034325;28;20203;-86
2023/11/25 12:15:53;;;;;;;6.47;4.90;;;6.40;99.90;;;;;;5035082;28;20186;-86
2023/11/25 12:18:20;;;;;;;8.67;6.10;;;6.30;99.90;;;;;;5034655;28;20180;-85
2023/11/25 12:20:46;;;;;;;4.93;4.30;;;6.20;99.90;;;;;;5034447;28;20168;-86
2023/11/25 12:23:12;;;;;;;8.03;5.37;;;6.10;99.90;;;;;;5040867;28;20175;-85
2023/11/25 12:25:39;;;;;;;8.40;5.27;;;6.10;99.90;;;;;;5037330;28;20210;-85
2023/11/25 12:28:06;;;;;;;10.47;4.90;;;6.20;99.90;;;;;;5036170;28;20266;-85
2023/11/25 12:30:35;;;;;;;9.30;5.97;;;6.30;99.90;;;;;;5034376;28;20175;-85
2023/11/25 12:33:01;;;;;;;5.40;4.40;;;6.50;99.90;;;;;;5035975;28;20230;-86
2023/11/25 12:35:28;;;;;;;8.27;6.00;;;6.60;99.90;;;;;;5034847;28;20191;-85
2023/11/25 12:37:54;;;;;;;8.23;4.60;;;6.60;99.90;;;;;;5033609;28;20645;-86
2023/11/25 12:40:24;;;;;;;16.40;9.23;;;6.70;99.90;;;;;;5035597;28;20182;-86
2023/11/25 12:42:51;;;;;;;8.53;5.00;;;6.70;99.90;;;;;;5034992;28;20190;-85
2023/11/25 12:45:41;;;;;;;10.83;5.10;;;6.70;99.90;;;;;;5035764;28;20198;-87
2023/11/25 12:48:09;;;;;;;8.83;4.67;;;6.80;99.90;;;;;;5034519;28;20189;-86
2023/11/25 12:50:56;;;;;;;7.40;4.37;;;6.90;83.60;;;;;;5035730;28;20295;-86
2023/11/25 12:53:21;;;;;;;8.30;4.27;;;6.80;43.70;;;;;;5034113;28;20207;-86
2023/11/25 12:55:49;;;;;;;5.70;4.03;;;6.90;54.20;;;;;;5034145;28;20223;-86